Report METAR

 

LIML - Milano/Linate, Italy
Distance from station: E 6km
Dati ricevuti: 12/07/2020 03:50
Sereno
Sereno
 Vento da ENE
Vento: ENE 9 km/h
Temperatura: 20°C
P.to Rugiada: 19°C
Umidità: 94%
Barometro: 1019 hPa
Nuvole: Sereno
Visibility: 10 km
2020/07/12 01:50 LIML 120150Z AUTO 07005KT 9999 NCD 20/19 Q1019
LIMC - Milano/Malpensa, Italy
Distance from station: ONO 40km
Dati ricevuti: 12/07/2020 03:50
Sereno
Sereno
 Vento da N
Vento: N 9 km/h
Temperatura: 18°C
P.to Rugiada: 16°C
Umidità: 88%
Barometro: 1019 hPa
Summary: Sereno
Visibility: superiore a 10 km
2020/07/12 01:50 LIMC 120150Z 35005KT CAVOK 18/16 Q1019 NOSIG
 
LIMN - Cameri (it-Afb), Italy
Distance from station: O 41km
Dati ricevuti: 10/07/2020 19:55
DATI Obsoleti
Few Clouds
Few Clouds
 Vento da N
Vento: N 9 km/h
Temperatura: 27°C
Indice di Calore: 28°C
P.to Rugiada: 18°C
Umidità: 58%
Barometro: 1013 hPa
Nuvole: Few Clouds
Visibility: 10 km
Cloud details: Few Clouds 914 m
2020/07/10 17:55 LIMN 101755Z 01005KT 9999 FEW030 27/18 Q1013 RMK SCT SCT200 VIS MIN 9999 BLU
LIME - Bergamo/Orio Ser, Italy
Distance from station: ENE 45km
Dati ricevuti: 12/07/2020 03:50
Sereno
Sereno
 Vento da Variabile
Vento: Variabile 4 km/h
Temperatura: 19°C
P.to Rugiada: 17°C
Umidità: 88%
Barometro: 1019 hPa
Summary: Sereno
Visibility: superiore a 10 km
2020/07/12 01:50 LIME 120150Z VRB02KT CAVOK 19/17 Q1019 NOSIG